createdAt,value
2023-01-20T00:01:24.053Z,14.65
2023-01-20T00:03:52.516Z,14.20
2023-01-20T00:06:19.059Z,13.93
2023-01-20T00:08:45.620Z,12.80
2023-01-20T00:11:12.740Z,12.43
2023-01-20T00:13:39.454Z,13.05
2023-01-20T00:16:07.796Z,12.70
2023-01-20T00:18:34.918Z,12.75
2023-01-20T00:21:03.631Z,12.73
2023-01-20T00:23:30.068Z,12.20
2023-01-20T00:25:57.626Z,13.25
2023-01-20T00:28:24.065Z,11.95
2023-01-20T00:30:50.580Z,11.15
2023-01-20T00:33:16.967Z,11.27
2023-01-20T00:35:43.374Z,10.35
2023-01-20T00:38:09.789Z,10.70
2023-01-20T00:40:36.136Z,10.65
2023-01-20T00:43:02.488Z,9.93
2023-01-20T00:45:28.856Z,10.15
2023-01-20T00:47:55.225Z,9.95
2023-01-20T00:50:21.565Z,10.32
2023-01-20T00:52:47.927Z,10.63
2023-01-20T00:55:14.792Z,9.75
2023-01-20T00:57:41.337Z,10.25
2023-01-20T01:00:08.465Z,9.10
2023-01-20T01:02:39.487Z,11.18
2023-01-20T01:05:06.342Z,9.73
2023-01-20T01:07:32.699Z,9.80
2023-01-20T01:09:59.043Z,10.00
2023-01-20T01:12:25.415Z,10.00
2023-01-20T01:14:51.834Z,10.25
2023-01-20T01:17:18.277Z,9.20
2023-01-20T01:19:44.687Z,9.57
2023-01-20T01:22:11.056Z,9.80
2023-01-20T01:24:37.540Z,9.25
2023-01-20T01:27:04.590Z,9.32
2023-01-20T01:29:31.049Z,9.60
2023-01-20T01:31:57.519Z,9.20
2023-01-20T01:34:23.948Z,10.75
2023-01-20T01:36:50.267Z,9.27
2023-01-20T01:39:16.616Z,9.15
2023-01-20T01:41:43.037Z,10.07
2023-01-20T01:44:11.884Z,8.93
2023-01-20T01:46:39.268Z,9.57
2023-01-20T01:49:29.641Z,10.38
2023-01-20T01:52:02.808Z,10.52
2023-01-20T01:54:37.055Z,9.23
2023-01-20T01:57:06.052Z,9.93
2023-01-20T01:59:32.622Z,9.05
2023-01-20T02:01:59.203Z,10.20
2023-01-20T02:04:27.528Z,10.27
2023-01-20T02:06:58.433Z,10.60
2023-01-20T02:09:26.379Z,10.95
2023-01-20T02:12:01.208Z,11.45
2023-01-20T02:14:41.748Z,12.75
2023-01-20T02:17:24.880Z,12.15
2023-01-20T02:22:44.269Z,14.73
2023-01-20T02:25:37.663Z,10.85
2023-01-20T02:28:29.593Z,11.85
2023-01-20T02:31:30.347Z,11.70
2023-01-20T02:34:03.230Z,10.30
2023-01-20T02:39:27.412Z,11.02
2023-01-20T02:42:09.039Z,10.32
2023-01-20T02:44:59.730Z,11.15
2023-01-20T02:47:31.972Z,8.05
2023-01-20T02:50:13.978Z,10.40
2023-01-20T02:52:45.527Z,9.53
2023-01-20T02:55:19.256Z,10.35
2023-01-20T02:57:50.400Z,10.85
2023-01-20T03:00:33.099Z,10.75
2023-01-20T03:03:02.910Z,12.88
2023-01-20T03:05:33.464Z,11.25
2023-01-20T03:08:05.857Z,10.88
2023-01-20T03:10:35.372Z,11.18
2023-01-20T03:13:17.783Z,10.93
2023-01-20T03:15:57.966Z,12.07
2023-01-20T03:18:25.760Z,11.02
2023-01-20T03:20:52.568Z,11.55
2023-01-20T03:23:19.087Z,11.15
2023-01-20T03:25:48.638Z,11.43
2023-01-20T03:28:15.097Z,11.73
2023-01-20T03:30:58.353Z,11.00
2023-01-20T03:33:26.032Z,12.43
2023-01-20T03:35:54.445Z,13.32
2023-01-20T03:38:21.073Z,12.77
2023-01-20T03:40:57.518Z,11.63
2023-01-20T03:43:34.972Z,10.40
2023-01-20T03:46:19.405Z,11.05
2023-01-20T03:49:00.658Z,10.50
2023-01-20T03:52:12.841Z,9.85
2023-01-20T03:54:57.827Z,10.02
2023-01-20T03:57:37.141Z,9.55
2023-01-20T04:00:07.252Z,8.48
2023-01-20T04:02:40.069Z,8.93
2023-01-20T04:05:08.066Z,9.48
2023-01-20T04:07:34.938Z,8.95
2023-01-20T04:10:08.662Z,8.75
2023-01-20T04:12:35.191Z,9.18
2023-01-20T04:15:01.692Z,9.70
2023-01-20T04:17:29.084Z,8.48
2023-01-20T04:19:56.950Z,9.27
2023-01-20T04:22:42.840Z,10.10
2023-01-20T04:25:20.605Z,9.50
2023-01-20T04:27:46.982Z,9.27
2023-01-20T04:30:14.358Z,9.10
2023-01-20T04:32:41.007Z,10.20
2023-01-20T04:35:07.713Z,9.23
2023-01-20T04:37:34.069Z,8.88
2023-01-20T04:40:00.404Z,9.13
2023-01-20T04:42:26.970Z,8.52
2023-01-20T04:44:53.359Z,9.02
2023-01-20T04:47:19.799Z,9.85
2023-01-20T04:49:46.137Z,8.98
2023-01-20T04:52:12.610Z,8.32
2023-01-20T04:54:38.990Z,8.98
2023-01-20T04:57:05.473Z,8.60
2023-01-20T04:59:31.791Z,8.50
2023-01-20T05:01:58.354Z,8.82
2023-01-20T05:04:24.929Z,8.35
2023-01-20T05:06:51.786Z,8.75
2023-01-20T05:09:18.202Z,8.73
2023-01-20T05:11:44.674Z,8.30
2023-01-20T05:14:12.070Z,9.13
2023-01-20T05:16:38.515Z,8.48
2023-01-20T05:19:04.989Z,9.07
2023-01-20T05:21:31.379Z,8.07
2023-01-20T05:23:57.800Z,8.07
2023-01-20T05:26:25.279Z,7.90
2023-01-20T05:28:51.984Z,9.27
2023-01-20T05:31:18.554Z,9.10
2023-01-20T05:33:45.015Z,8.80
2023-01-20T05:36:12.148Z,8.90
2023-01-20T05:38:38.565Z,8.63
2023-01-20T05:41:07.618Z,8.15
2023-01-20T05:43:34.537Z,8.70
2023-01-20T05:46:01.020Z,9.20
2023-01-20T05:48:27.982Z,9.20
2023-01-20T05:50:54.518Z,9.00
2023-01-20T05:53:21.313Z,8.98
2023-01-20T05:55:47.731Z,9.85
2023-01-20T05:58:14.508Z,9.02
2023-01-20T06:00:41.079Z,9.45
2023-01-20T06:03:07.656Z,8.73
2023-01-20T06:05:34.028Z,9.35
2023-01-20T06:08:01.243Z,9.10
2023-01-20T06:10:28.221Z,8.38
2023-01-20T06:12:55.567Z,9.15
2023-01-20T06:15:26.193Z,9.63
2023-01-20T06:17:54.940Z,10.25
2023-01-20T06:20:21.722Z,9.43
2023-01-20T06:22:48.163Z,9.38
2023-01-20T06:25:14.907Z,10.07
2023-01-20T06:27:41.416Z,11.30
2023-01-20T06:30:08.760Z,10.27
2023-01-20T06:32:35.210Z,10.05
2023-01-20T06:35:01.555Z,11.32
2023-01-20T06:37:28.159Z,10.52
2023-01-20T06:39:54.592Z,10.73
2023-01-20T06:42:21.487Z,9.68
2023-01-20T06:44:48.318Z,10.43
2023-01-20T06:47:14.770Z,10.48
2023-01-20T06:49:41.496Z,10.38
2023-01-20T06:52:09.561Z,9.15
2023-01-20T06:54:35.904Z,9.85
2023-01-20T06:57:02.402Z,9.57
2023-01-20T06:59:28.782Z,10.73
2023-01-20T07:01:55.307Z,11.50
2023-01-20T07:04:21.696Z,11.20
2023-01-20T07:06:48.236Z,10.75
2023-01-20T07:09:14.565Z,10.50
2023-01-20T07:11:41.392Z,10.82
2023-01-20T07:14:08.295Z,11.15
2023-01-20T07:16:35.090Z,12.18
2023-01-20T07:19:01.585Z,13.68
2023-01-20T07:21:28.140Z,14.43
2023-01-20T07:23:54.803Z,14.50
2023-01-20T07:26:24.047Z,14.75
2023-01-20T07:28:51.825Z,15.68
2023-01-20T07:31:25.036Z,15.77
2023-01-20T07:33:52.855Z,16.50
2023-01-20T07:36:19.419Z,15.52
2023-01-20T07:38:53.345Z,16.13
2023-01-20T07:41:20.782Z,14.73
2023-01-20T07:43:49.957Z,16.10
2023-01-20T07:46:17.411Z,15.27
2023-01-20T07:48:44.012Z,14.80
2023-01-20T07:51:12.920Z,14.55
2023-01-20T07:53:41.923Z,14.70
2023-01-20T07:56:14.557Z,15.85
2023-01-20T07:58:41.274Z,13.60
2023-01-20T08:01:10.132Z,15.35
2023-01-20T08:03:37.157Z,15.77
2023-01-20T08:06:08.705Z,14.30
2023-01-20T08:08:35.762Z,15.38
2023-01-20T08:11:03.661Z,14.50
2023-01-20T08:13:31.197Z,14.95
2023-01-20T08:16:01.996Z,13.43
2023-01-20T08:18:29.357Z,14.40
2023-01-20T08:20:55.786Z,16.67
2023-01-20T08:23:22.204Z,18.27
2023-01-20T08:25:48.545Z,16.38
2023-01-20T08:28:14.985Z,19.13
2023-01-20T08:30:41.402Z,20.70
2023-01-20T08:33:07.904Z,18.30
2023-01-20T08:35:36.251Z,19.20
2023-01-20T08:38:03.404Z,18.77
2023-01-20T08:40:29.767Z,19.20
2023-01-20T08:42:56.136Z,20.00
2023-01-20T08:45:23.537Z,19.52
2023-01-20T08:47:49.945Z,19.20
2023-01-20T08:50:16.847Z,17.67
2023-01-20T08:52:43.569Z,18.40
2023-01-20T08:55:10.681Z,17.10
2023-01-20T08:57:37.429Z,15.98
2023-01-20T09:00:05.584Z,19.75
2023-01-20T09:02:32.030Z,19.70
2023-01-20T09:05:05.004Z,19.30
2023-01-20T09:07:31.557Z,17.80
2023-01-20T09:09:57.970Z,16.75
2023-01-20T09:12:24.391Z,17.45
2023-01-20T09:14:50.804Z,16.83
2023-01-20T09:17:17.600Z,15.80
2023-01-20T09:19:44.078Z,17.38
2023-01-20T09:22:10.521Z,17.50
2023-01-20T09:24:36.847Z,15.43
2023-01-20T09:27:03.403Z,17.77
2023-01-20T09:29:29.800Z,18.50
2023-01-20T09:31:59.388Z,17.45
2023-01-20T09:34:29.141Z,22.02
2023-01-20T09:37:19.877Z,17.15
2023-01-20T09:40:05.701Z,19.15
2023-01-20T09:43:00.143Z,16.25
2023-01-20T09:45:36.514Z,15.32
2023-01-20T09:48:15.465Z,16.35
2023-01-20T09:51:10.116Z,15.90
2023-01-20T09:53:59.224Z,15.63
2023-01-20T09:56:28.374Z,15.10
2023-01-20T09:59:05.249Z,15.63
2023-01-20T10:01:53.718Z,17.15
2023-01-20T10:04:32.969Z,15.65
2023-01-20T10:07:08.574Z,16.50
2023-01-20T10:10:07.372Z,17.80
2023-01-20T10:12:40.990Z,16.20
2023-01-20T10:15:12.530Z,17.15
2023-01-20T10:17:54.337Z,17.88
2023-01-20T10:20:31.106Z,17.50
2023-01-20T10:23:00.501Z,17.58
2023-01-20T10:25:37.931Z,18.35
2023-01-20T10:28:11.915Z,19.05
2023-01-20T10:30:38.981Z,15.88
2023-01-20T10:33:12.157Z,16.27
2023-01-20T10:35:46.847Z,15.30
2023-01-20T10:38:26.342Z,15.80
2023-01-20T10:41:00.415Z,16.25
2023-01-20T10:43:26.931Z,15.25
2023-01-20T10:46:19.565Z,15.23
2023-01-20T10:49:14.125Z,11.70
2023-01-20T10:52:14.269Z,15.90
2023-01-20T10:54:50.065Z,16.10
2023-01-20T10:57:16.587Z,15.48
2023-01-20T10:59:50.524Z,15.00
2023-01-20T11:02:27.645Z,14.65
2023-01-20T11:05:00.600Z,15.77
2023-01-20T11:07:28.857Z,17.00
2023-01-20T11:09:55.425Z,15.60
2023-01-20T11:12:29.673Z,14.13
2023-01-20T11:15:00.197Z,12.70
2023-01-20T11:17:26.813Z,14.80
2023-01-20T11:19:56.774Z,13.65
2023-01-20T11:22:33.366Z,13.48
2023-01-20T11:25:01.764Z,12.35
2023-01-20T11:27:35.008Z,12.00
2023-01-20T11:30:06.946Z,12.77
2023-01-20T11:32:36.306Z,11.40
2023-01-20T11:35:18.674Z,12.57
2023-01-20T11:37:45.154Z,12.38
2023-01-20T11:40:27.341Z,12.18
2023-01-20T11:42:54.379Z,13.23
2023-01-20T11:45:34.710Z,11.57
2023-01-20T11:48:05.818Z,11.43
2023-01-20T11:50:35.651Z,11.65
2023-01-20T11:53:12.044Z,12.15
2023-01-20T11:55:50.857Z,12.10
2023-01-20T11:58:23.697Z,11.30
2023-01-20T12:00:58.589Z,12.90
2023-01-20T12:03:50.129Z,11.32
2023-01-20T12:06:22.592Z,10.13
2023-01-20T12:09:00.290Z,8.70
2023-01-20T12:11:50.362Z,9.63
2023-01-20T12:14:25.502Z,11.38
2023-01-20T12:17:08.910Z,11.20
2023-01-20T12:19:55.498Z,11.70
2023-01-20T12:22:31.798Z,11.68
2023-01-20T12:25:09.120Z,12.73
2023-01-20T12:27:43.885Z,9.98
2023-01-20T12:30:28.309Z,10.65
2023-01-20T12:32:54.908Z,9.90
2023-01-20T12:35:27.480Z,11.52
2023-01-20T12:38:05.516Z,11.80
2023-01-20T12:40:52.574Z,10.27
2023-01-20T12:43:43.522Z,10.85
2023-01-20T12:46:22.155Z,11.77
2023-01-20T12:49:00.842Z,11.40
2023-01-20T12:52:10.007Z,11.00
2023-01-20T12:55:15.856Z,11.30
2023-01-20T12:57:58.213Z,11.65
2023-01-20T13:00:33.987Z,10.68
2023-01-20T13:03:33.444Z,12.68
2023-01-20T13:06:33.111Z,11.65
2023-01-20T13:09:22.102Z,12.40
2023-01-20T13:12:10.080Z,13.40
2023-01-20T13:14:45.890Z,12.30
2023-01-20T13:17:38.228Z,11.90
2023-01-20T13:20:14.545Z,13.10
2023-01-20T13:22:41.375Z,12.63
2023-01-20T13:25:15.261Z,11.98
2023-01-20T13:27:43.813Z,11.52
2023-01-20T13:30:51.467Z,11.45
2023-01-20T13:33:31.393Z,9.82
2023-01-20T13:35:59.894Z,10.93
2023-01-20T13:38:32.993Z,10.50
2023-01-20T13:41:03.387Z,9.93
2023-01-20T13:43:36.271Z,10.57
2023-01-20T13:46:02.707Z,11.05
2023-01-20T13:48:31.118Z,11.88
2023-01-20T13:51:15.774Z,11.32
2023-01-20T13:53:43.099Z,9.20
2023-01-20T13:56:32.773Z,9.45
2023-01-20T13:58:59.417Z,9.75
2023-01-20T14:01:27.290Z,9.57
2023-01-20T14:04:14.596Z,9.32
2023-01-20T14:06:49.303Z,9.50
2023-01-20T14:09:23.546Z,9.43
2023-01-20T14:11:52.013Z,8.90
2023-01-20T14:14:20.865Z,10.13
2023-01-20T14:16:47.479Z,9.50
2023-01-20T14:19:32.359Z,9.25
2023-01-20T14:22:02.677Z,8.63
2023-01-20T14:24:33.125Z,8.85
2023-01-20T14:27:15.054Z,7.38
2023-01-20T14:29:41.494Z,8.32
2023-01-20T14:32:21.153Z,8.40
2023-01-20T14:34:48.968Z,7.97
2023-01-20T14:37:29.747Z,8.90
2023-01-20T14:40:00.174Z,9.05
2023-01-20T14:42:28.645Z,8.38
2023-01-20T14:44:57.013Z,8.43
2023-01-20T14:47:26.047Z,7.72
2023-01-20T14:49:54.192Z,7.30
2023-01-20T14:52:26.401Z,7.50
2023-01-20T14:54:56.121Z,7.38
2023-01-20T14:57:40.547Z,7.50
2023-01-20T15:00:21.543Z,6.90
2023-01-20T15:03:09.604Z,5.70
2023-01-20T15:05:42.570Z,6.25
2023-01-20T15:08:11.789Z,7.78
2023-01-20T15:10:39.383Z,6.32
2023-01-20T15:13:23.180Z,6.90
2023-01-20T15:15:49.877Z,6.38
2023-01-20T15:18:19.881Z,6.18
2023-01-20T15:20:54.909Z,6.63
2023-01-20T15:23:35.416Z,5.93
2023-01-20T15:26:30.113Z,5.95
2023-01-20T15:28:58.071Z,6.85
2023-01-20T15:31:24.969Z,6.53
2023-01-20T15:33:51.495Z,9.18
2023-01-20T15:36:27.491Z,13.02
2023-01-20T15:38:54.217Z,12.32
2023-01-20T15:41:21.526Z,13.40
2023-01-20T15:43:49.274Z,13.68
2023-01-20T15:46:17.162Z,13.35
2023-01-20T15:48:45.018Z,14.27
2023-01-20T15:51:14.360Z,12.32
2023-01-20T15:53:41.154Z,17.95
2023-01-20T15:56:20.798Z,30.48
2023-01-20T15:58:48.513Z,18.35
2023-01-20T16:01:23.621Z,18.35
2023-01-20T16:03:56.962Z,19.23
2023-01-20T16:06:31.127Z,15.65
2023-01-20T16:08:59.893Z,11.88
2023-01-20T16:11:26.245Z,13.52
2023-01-20T16:13:53.467Z,15.05
2023-01-20T16:16:22.662Z,14.60
2023-01-20T16:18:49.757Z,13.45
2023-01-20T16:21:18.841Z,16.17
2023-01-20T16:23:45.479Z,15.40
2023-01-20T16:26:26.751Z,16.27
2023-01-20T16:28:55.918Z,16.00
2023-01-20T16:31:24.358Z,17.58
2023-01-20T16:33:52.481Z,16.50
2023-01-20T16:36:20.423Z,18.10
2023-01-20T16:38:47.805Z,17.45
2023-01-20T16:41:27.312Z,17.15
2023-01-20T16:43:55.182Z,17.83
2023-01-20T16:46:24.857Z,15.95
2023-01-20T16:48:51.860Z,16.10
2023-01-20T16:51:23.161Z,15.23
2023-01-20T16:53:49.664Z,18.60
2023-01-20T16:56:25.227Z,18.95
2023-01-20T16:58:53.345Z,18.17
2023-01-20T17:01:23.419Z,18.02
2023-01-20T17:03:51.898Z,14.48
2023-01-20T17:06:24.050Z,11.88
2023-01-20T17:08:58.336Z,11.95
2023-01-20T17:11:33.022Z,13.73
2023-01-20T17:14:02.026Z,10.48
2023-01-20T17:16:29.075Z,11.98
2023-01-20T17:18:58.403Z,10.98
2023-01-20T17:21:26.546Z,12.02
2023-01-20T17:23:55.763Z,13.23
2023-01-20T17:26:23.088Z,13.07
2023-01-20T17:28:54.640Z,14.50
2023-01-20T17:31:22.526Z,13.45
2023-01-20T17:33:49.841Z,12.48
2023-01-20T17:36:16.886Z,12.98
2023-01-20T17:38:44.158Z,12.25
2023-01-20T17:41:12.079Z,12.63
2023-01-20T17:43:44.240Z,13.23
2023-01-20T17:46:12.841Z,13.48
2023-01-20T17:48:39.378Z,14.93
2023-01-20T17:51:14.225Z,15.05
2023-01-20T17:53:41.822Z,15.85
2023-01-20T17:56:12.719Z,14.77
2023-01-20T17:58:40.908Z,14.20
2023-01-20T18:01:22.788Z,15.30
2023-01-20T18:03:51.058Z,12.98
2023-01-20T18:06:20.207Z,13.05
2023-01-20T18:08:52.222Z,12.55
2023-01-20T18:11:20.225Z,14.40
2023-01-20T18:13:47.862Z,14.30
2023-01-20T18:16:15.704Z,17.08
2023-01-20T18:18:44.084Z,17.17
2023-01-20T18:21:18.207Z,16.73
2023-01-20T18:23:46.062Z,15.70
2023-01-20T18:26:14.449Z,14.60
2023-01-20T18:28:41.794Z,14.57
2023-01-20T18:31:11.436Z,14.10
2023-01-20T18:33:43.917Z,13.85
2023-01-20T18:36:14.866Z,15.05
2023-01-20T18:38:45.366Z,12.93
2023-01-20T18:41:13.649Z,14.85
2023-01-20T18:43:41.031Z,14.40
2023-01-20T18:46:08.762Z,13.75
2023-01-20T18:48:39.573Z,14.35
2023-01-20T18:51:07.195Z,14.30
2023-01-20T18:53:33.691Z,12.93
2023-01-20T18:56:09.011Z,13.73
2023-01-20T18:58:37.199Z,16.17
2023-01-20T19:01:09.827Z,13.63
2023-01-20T19:03:37.737Z,13.75
2023-01-20T19:06:10.769Z,15.38
2023-01-20T19:08:41.855Z,14.52
2023-01-20T19:11:15.176Z,13.32
2023-01-20T19:13:43.481Z,13.88
2023-01-20T19:16:12.635Z,15.13
2023-01-20T19:18:44.583Z,15.80
2023-01-20T19:21:14.909Z,13.30
2023-01-20T19:23:42.415Z,14.27
2023-01-20T19:26:11.886Z,14.68
2023-01-20T19:28:39.249Z,15.25
2023-01-20T19:31:07.733Z,16.13
2023-01-20T19:33:34.727Z,14.63
2023-01-20T19:36:02.981Z,14.02
2023-01-20T19:38:29.539Z,14.25
2023-01-20T19:41:04.760Z,13.35
2023-01-20T19:43:31.347Z,13.43
2023-01-20T19:46:01.996Z,11.98
2023-01-20T19:48:28.513Z,13.60
2023-01-20T19:50:55.039Z,13.43
2023-01-20T19:53:21.473Z,11.73
2023-01-20T19:55:49.034Z,11.75
2023-01-20T19:58:15.403Z,12.05
2023-01-20T20:00:42.287Z,11.38
2023-01-20T20:03:08.660Z,9.70
2023-01-20T20:05:38.529Z,10.95
2023-01-20T20:08:05.129Z,9.10
2023-01-20T20:10:31.448Z,8.65
2023-01-20T20:12:57.856Z,9.25
2023-01-20T20:15:24.200Z,10.70
2023-01-20T20:17:54.155Z,9.32
2023-01-20T20:20:20.624Z,9.13
2023-01-20T20:22:46.976Z,9.93
2023-01-20T20:25:13.334Z,10.55
2023-01-20T20:27:39.732Z,11.52
2023-01-20T20:30:08.411Z,12.52
2023-01-20T20:32:35.081Z,10.68
2023-01-20T20:35:01.424Z,11.50
2023-01-20T20:37:27.839Z,11.05
2023-01-20T20:39:54.219Z,10.45
2023-01-20T20:42:20.979Z,9.07
2023-01-20T20:44:47.524Z,9.15
2023-01-20T20:47:13.892Z,9.90
2023-01-20T20:49:40.330Z,8.90
2023-01-20T20:52:06.792Z,8.20
2023-01-20T20:54:33.176Z,9.60
2023-01-20T20:56:59.615Z,9.05
2023-01-20T20:59:26.041Z,7.88
2023-01-20T21:01:54.182Z,8.68
2023-01-20T21:04:20.558Z,8.65
2023-01-20T21:06:47.047Z,9.25
2023-01-20T21:09:13.460Z,9.13
2023-01-20T21:11:42.863Z,8.27
2023-01-20T21:14:09.427Z,7.78
2023-01-20T21:16:36.135Z,8.82
2023-01-20T21:19:03.108Z,7.95
2023-01-20T21:21:29.791Z,7.32
2023-01-20T21:23:58.767Z,8.55
2023-01-20T21:26:29.812Z,7.60
2023-01-20T21:28:57.206Z,7.10
2023-01-20T21:31:26.417Z,7.57
2023-01-20T21:33:55.304Z,9.35
2023-01-20T21:36:22.266Z,9.07
2023-01-20T21:38:49.390Z,10.55
2023-01-20T21:41:16.238Z,9.65
2023-01-20T21:44:03.302Z,9.98
2023-01-20T21:46:32.517Z,10.23
2023-01-20T21:49:17.586Z,10.30
2023-01-20T21:52:03.213Z,10.98
2023-01-20T21:54:31.360Z,11.30
2023-01-20T21:56:58.944Z,11.35
2023-01-20T21:59:25.694Z,11.70
2023-01-20T22:01:52.420Z,11.57
2023-01-20T22:04:19.643Z,11.50
2023-01-20T22:06:46.049Z,11.95
2023-01-20T22:09:12.635Z,11.65
2023-01-20T22:11:38.988Z,14.25
2023-01-20T22:14:06.046Z,12.35
2023-01-20T22:16:32.644Z,12.32
2023-01-20T22:18:59.977Z,13.48
2023-01-20T22:21:27.443Z,14.10
2023-01-20T22:23:54.430Z,11.10
2023-01-20T22:26:21.706Z,10.20
2023-01-20T22:28:49.201Z,8.75
2023-01-20T22:31:24.151Z,8.40
2023-01-20T22:33:52.325Z,8.57
2023-01-20T22:36:19.868Z,9.30
2023-01-20T22:38:47.989Z,10.30
2023-01-20T22:41:14.430Z,9.90
2023-01-20T22:43:43.873Z,13.35
2023-01-20T22:46:15.190Z,14.98
2023-01-20T22:48:42.102Z,13.90
2023-01-20T22:51:14.955Z,15.60
2023-01-20T22:56:14.385Z,14.68
2023-01-20T22:58:41.762Z,14.07
2023-01-20T23:01:29.140Z,14.80
2023-01-20T23:03:57.724Z,14.10
2023-01-20T23:06:25.811Z,15.63
2023-01-20T23:08:52.526Z,16.52
2023-01-20T23:11:21.324Z,15.43
2023-01-20T23:13:47.828Z,15.50
2023-01-20T23:16:17.535Z,15.70
2023-01-20T23:18:45.112Z,15.98
2023-01-20T23:21:12.162Z,16.67
2023-01-20T23:23:38.840Z,15.75
2023-01-20T23:26:18.434Z,16.75
2023-01-20T23:28:45.702Z,16.73
2023-01-20T23:31:14.920Z,16.73
2023-01-20T23:33:43.510Z,15.95
2023-01-20T23:36:19.819Z,16.92
2023-01-20T23:38:46.493Z,17.60
2023-01-20T23:41:13.868Z,17.42
2023-01-20T23:43:40.927Z,16.50
2023-01-20T23:46:08.042Z,16.45
2023-01-20T23:48:35.554Z,19.13
2023-01-20T23:51:02.547Z,16.60
2023-01-20T23:53:31.860Z,17.05
2023-01-20T23:55:59.911Z,16.02
2023-01-20T23:58:26.321Z,17.23
